Moyock, North Carolina
Current Conditions -  °F | °C
As of 4:55 PM on Monday 20 Oct 2014 (Local Time) from KONX Reporting Station
Clear Clear  
Wind Chill: 69°   Ceiling: Unl
Heat Index: 69°   Visibility: 10mi
Dew Point: 41°   Wind: 8mph
Humidity: 35%   Direction: 180°S
Pressure: 30.02"   Gusts: NA
Location:  36.52°N, 76.18°W
Report Text: KONX 202055Z AUTO 18007KT 150V210 10SM CLR 21/05 A3002 RMK AO2 T02070048
Loading
Personal Weather Stations






























Interactive Weather Map
Tropical Storm Tracking
New forecast layout! Learn more

10-Day Weather Forecast

Advertisements
Track Severe Weather on mobile